Monterey, Indiana
Current Conditions -  °F | °C
As of 11:55 AM on Monday 22 Dec 2014 (Local Time) from KOXI Reporting Station
Overcast Overcast  
Wind Chill: 28°   Ceiling: 8500
Heat Index: 36°   Visibility: 7mi
Dew Point: 28°   Wind: 13mph
Humidity: 72%   Direction: 130°SE
Pressure: 29.85"   Gusts: NA
Location:  41.16°N, 86.48°W
Report Text: KOXI 221755Z AUTO 13011KT 7SM SCT030 SCT060 OVC085 02/M02 A2985 RMK AO1 T00221024 10273 21130
Loading
Personal Weather Stations






























Interactive Weather Map New forecast layout! Learn more

10-Day Weather Forecast

Advertisements
Track Severe Weather on mobile